No particular awareness of the weather is required.    There are no Weather-warnings

My Other Sites:

SYKIA HOMEWEATHERSTATIONsikeaweather.alinos.eu

SYKIA METEOTEMPLATEsykiameteo.alinos.eu

alinos.eualinos.eu



Nearby METAR Reports

   
LGEL - Elefsis (hel-Afb, Greece
Distance from station: E 77 km
Updated: 31-05-2020 12:20
Few Clouds  
Few Clouds  
   Wind: varies Calm
Wind: varies Calm
Temperature: 23°C
Dew Point: 10°C
Humidity: 44%
Barometer: 1012 hPa
Clouds: Few Clouds
Visibility: More than 10 km
Cloud details: Few Clouds 2500 ft
LGEL 310920Z /////KT 9999 FEW025 23/10 Q1012
LGRX - Araxos (civ/Afb), Greece
Distance from station: W 110 km
Updated: 31-05-2020 12:20
Mostly Cloudy  
Mostly Cloudy  
   Wind: SSW 7.4 km/h
Wind: SSW 7.4 km/h
Temperature: 20°C
Dew Point: 13°C
Humidity: 64%
Barometer: 1015 hPa
Clouds: Mostly Cloudy
Visibility: More than 10 km
Cloud details: Few Clouds 2000 ft,
Mostly Cloudy 8000 ft
LGRX 310920Z 21004KT 9999 FEW020TCU BKN080 20/13 Q1015
LGAV - Athens/Elef-Ven, Greece
Distance from station: E 113 km
Updated: 31-05-2020 12:20
Partly Cloudy  
Partly Cloudy  
   Wind: SW 14.8 km/h
Wind: SW 14.8 km/h
Temperature: 24°C
Dew Point: 8°C
Humidity: 36%
Barometer: 1014 hPa
Clouds: Partly Cloudy
Visibility: More than 10 km
Cloud details: Partly Cloudy 3000 ft
LGAV 310920Z 23008KT 190V260 9999 SCT030 24/08 Q1014 NOSIG
LGAD - Andravida (civ/A, Greece
Distance from station: W 124 km
Updated: 31-05-2020 12:20
Mostly Cloudy  
Mostly Cloudy  
   Wind: South 13 km/h
Wind: South 13 km/h
Temperature: 20°C
Dew Point: 14°C
Humidity: 69%
Barometer: 1015 hPa
Clouds: Mostly Cloudy
Visibility: More than 10 km
Cloud details: Few Clouds 1800 ft,
Partly Cloudy 2500 ft,
Mostly Cloudy 8000 ft
LGAD 310920Z 19007KT 9999 FEW018TCU SCT025 BKN080 20/14 Q1015
LGKL - Kalamata (hel-Af, Greece
Distance from station: SSW 124 km
Updated: 31-05-2020 12:20
Mostly Cloudy  
Mostly Cloudy  
   Wind: North 5.6 km/h
Wind: North 5.6 km/h
Temperature: 18°C
Dew Point: 11°C
Humidity: 64%
Barometer: 1015 hPa
Clouds: Mostly Cloudy
Visibility: More than 10 km
Cloud details: Few Clouds 3000 ft,
Mostly Cloudy 8000 ft
LGKL 310920Z 35003KT 9999 FEW030 BKN080 18/11 Q1015
LGBL - Nea Anchialos, Greece
Distance from station: N 129 km
Updated: 31-05-2020 12:20
Few Clouds  
Few Clouds  
   Wind: ESE 13 km/h
Wind: ESE 13 km/h
Temperature: 23°C
Dew Point: 8°C
Humidity: 38%
Barometer: 1012 hPa
Clouds: Few Clouds
Visibility: More than 10 km
Cloud details: Few Clouds 3000 ft
LGBL 310920Z 11007KT 9999 FEW030 23/08 Q1012

Script developed by  Saratoga-weather.org Adapted for the template by  Weerstation Leuven

You find our weather info also at:

European Weather Network

Weather Underground

AWEKAS

Citizen Weather Observer Program (CWOP)

UK Metoffice

Equipment we use:

Weather-station
Davis Wireless Vantage Pro2

Davis Wireless Vantage Pro2